createdAt,value
2022-11-03T00:00:43.200Z,9.97
2022-11-03T00:01:43.285Z,9.93
2022-11-03T00:02:43.198Z,9.96
2022-11-03T00:03:43.121Z,9.90
2022-11-03T00:04:43.098Z,9.86
2022-11-03T00:05:43.086Z,9.87
2022-11-03T00:06:43.071Z,9.74
2022-11-03T00:07:43.097Z,9.74
2022-11-03T00:08:43.035Z,9.74
2022-11-03T00:09:43.021Z,9.79
2022-11-03T00:10:43.002Z,9.91
2022-11-03T00:11:42.989Z,9.91
2022-11-03T00:12:42.972Z,9.91
2022-11-03T00:13:42.956Z,9.81
2022-11-03T00:14:42.937Z,9.91
2022-11-03T00:15:42.921Z,9.91
2022-11-03T00:16:42.971Z,9.84
2022-11-03T00:17:42.890Z,9.90
2022-11-03T00:18:42.869Z,9.83
2022-11-03T00:19:42.861Z,9.79
2022-11-03T00:20:42.840Z,9.71
2022-11-03T00:21:42.825Z,9.83
2022-11-03T00:22:42.846Z,9.89
2022-11-03T00:23:42.792Z,9.84
2022-11-03T00:24:42.773Z,9.72
2022-11-03T00:25:42.762Z,9.81
2022-11-03T00:26:42.741Z,9.72
2022-11-03T00:27:42.751Z,9.72
2022-11-03T00:28:42.706Z,9.71
2022-11-03T00:29:42.690Z,9.74
2022-11-03T00:30:42.677Z,9.72
2022-11-03T00:31:42.661Z,9.72
2022-11-03T00:32:42.667Z,9.76
2022-11-03T00:33:42.628Z,9.74
2022-11-03T00:34:42.623Z,9.71
2022-11-03T00:35:42.591Z,9.78
2022-11-03T00:36:42.577Z,9.66
2022-11-03T00:37:42.605Z,9.68
2022-11-03T00:38:42.654Z,9.74
2022-11-03T00:39:42.567Z,9.69
2022-11-03T00:40:42.507Z,9.68
2022-11-03T00:41:42.494Z,9.65
2022-11-03T00:42:42.520Z,9.72
2022-11-03T00:43:42.461Z,9.65
2022-11-03T00:44:42.445Z,9.56
2022-11-03T00:45:42.427Z,9.50
2022-11-03T00:46:42.412Z,9.48
2022-11-03T00:47:42.454Z,9.48
2022-11-03T00:48:42.448Z,9.42
2022-11-03T00:49:42.361Z,9.53
2022-11-03T00:50:42.344Z,9.50
2022-11-03T00:51:42.332Z,9.47
2022-11-03T00:52:42.312Z,9.43
2022-11-03T00:53:42.306Z,9.38
2022-11-03T00:54:45.398Z,9.36
2022-11-03T00:55:42.264Z,9.38
2022-11-03T00:56:42.254Z,9.32
2022-11-03T00:57:42.228Z,9.38
2022-11-03T00:58:42.243Z,9.36
2022-11-03T00:59:42.195Z,9.40
2022-11-03T01:00:42.255Z,9.36
2022-11-03T01:01:48.415Z,9.38
2022-11-03T01:02:42.259Z,9.43
2022-11-03T01:03:42.132Z,9.42
2022-11-03T01:04:42.115Z,9.40
2022-11-03T01:05:42.097Z,9.40
2022-11-03T01:06:42.080Z,9.35
2022-11-03T01:07:42.063Z,9.39
2022-11-03T01:08:42.078Z,9.40
2022-11-03T01:09:42.029Z,9.26
2022-11-03T01:10:42.078Z,9.32
2022-11-03T01:11:41.998Z,9.40
2022-11-03T01:12:41.998Z,9.36
2022-11-03T01:13:41.964Z,9.42
2022-11-03T01:14:41.957Z,9.46
2022-11-03T01:15:41.932Z,9.33
2022-11-03T01:16:41.919Z,9.48
2022-11-03T01:17:41.895Z,9.38
2022-11-03T01:18:41.896Z,9.39
2022-11-03T01:19:41.865Z,9.36
2022-11-03T01:20:41.859Z,9.42
2022-11-03T01:21:41.841Z,9.35
2022-11-03T01:22:41.855Z,9.36
2022-11-03T01:23:41.799Z,9.40
2022-11-03T01:24:41.825Z,9.39
2022-11-03T01:25:41.765Z,9.43
2022-11-03T01:26:41.751Z,9.39
2022-11-03T01:27:41.731Z,9.39
2022-11-03T01:28:41.726Z,9.38
2022-11-03T01:29:41.752Z,9.38
2022-11-03T01:30:41.697Z,9.38
2022-11-03T01:31:41.667Z,9.48
2022-11-03T01:32:41.657Z,9.50
2022-11-03T01:33:41.635Z,9.50
2022-11-03T01:34:41.625Z,9.56
2022-11-03T01:35:41.627Z,9.51
2022-11-03T01:36:41.591Z,9.54
2022-11-03T01:37:41.578Z,9.50
2022-11-03T01:38:41.578Z,9.56
2022-11-03T01:39:41.536Z,9.54
2022-11-03T01:40:41.561Z,9.60
2022-11-03T01:41:41.502Z,9.54
2022-11-03T01:42:41.492Z,9.66
2022-11-03T01:43:41.470Z,9.57
2022-11-03T01:44:41.458Z,9.50
2022-11-03T01:45:41.473Z,9.53
2022-11-03T01:46:41.420Z,9.58
2022-11-03T01:47:41.401Z,9.53
2022-11-03T01:48:41.386Z,9.57
2022-11-03T01:49:41.381Z,9.60
2022-11-03T01:50:41.411Z,9.65
2022-11-03T01:51:41.339Z,9.57
2022-11-03T01:52:41.322Z,9.65
2022-11-03T01:53:41.301Z,9.74
2022-11-03T01:54:41.291Z,9.64
2022-11-03T01:55:41.269Z,9.61
2022-11-03T01:56:41.282Z,9.74
2022-11-03T01:57:41.239Z,9.68
2022-11-03T01:58:41.222Z,9.65
2022-11-03T01:59:41.207Z,9.81
2022-11-03T02:00:41.189Z,9.66
2022-11-03T02:01:41.499Z,9.76
2022-11-03T02:02:41.159Z,9.74
2022-11-03T02:03:41.146Z,9.79
2022-11-03T02:04:41.124Z,9.83
2022-11-03T02:05:41.121Z,9.86
2022-11-03T02:06:41.089Z,9.83
2022-11-03T02:07:41.082Z,9.81
2022-11-03T02:08:41.061Z,9.86
2022-11-03T02:09:41.056Z,9.79
2022-11-03T02:10:41.022Z,9.81
2022-11-03T02:11:41.006Z,9.83
2022-11-03T02:12:41.186Z,9.87
2022-11-03T02:13:40.982Z,9.90
2022-11-03T02:14:40.957Z,9.96
2022-11-03T02:15:40.939Z,9.91
2022-11-03T02:16:43.658Z,10.05
2022-11-03T02:17:40.906Z,10.08
2022-11-03T02:18:40.917Z,9.96
2022-11-03T02:19:40.900Z,9.90
2022-11-03T02:20:40.869Z,9.97
2022-11-03T02:21:40.842Z,10.08
2022-11-03T02:22:40.824Z,10.11
2022-11-03T02:23:40.857Z,10.14
2022-11-03T02:24:40.792Z,10.02
2022-11-03T02:25:40.770Z,10.14
2022-11-03T02:26:40.759Z,10.11
2022-11-03T02:27:40.744Z,10.08
2022-11-03T02:28:40.741Z,10.05
2022-11-03T02:29:40.735Z,9.94
2022-11-03T02:30:40.693Z,10.01
2022-11-03T02:31:40.677Z,9.99
2022-11-03T02:32:40.662Z,10.02
2022-11-03T02:33:40.639Z,10.04
2022-11-03T02:34:40.690Z,9.99
2022-11-03T02:35:40.612Z,10.04
2022-11-03T02:36:40.594Z,10.04
2022-11-03T02:37:40.576Z,9.96
2022-11-03T02:38:40.566Z,10.05
2022-11-03T02:39:40.578Z,10.07
2022-11-03T02:40:40.530Z,10.02
2022-11-03T02:41:40.511Z,10.02
2022-11-03T02:42:40.498Z,9.97
2022-11-03T02:43:40.475Z,10.01
2022-11-03T02:44:40.489Z,9.93
2022-11-03T02:45:40.530Z,9.96
2022-11-03T02:46:40.428Z,10.01
2022-11-03T02:47:40.435Z,10.02
2022-11-03T02:48:40.397Z,9.91
2022-11-03T02:49:40.379Z,9.99
2022-11-03T02:50:40.362Z,9.91
2022-11-03T02:51:40.371Z,9.84
2022-11-03T02:52:40.330Z,9.91
2022-11-03T02:53:40.334Z,9.87
2022-11-03T02:54:40.297Z,10.01
2022-11-03T02:55:40.285Z,9.93
2022-11-03T02:56:40.263Z,9.83
2022-11-03T02:57:40.298Z,9.94
2022-11-03T02:58:40.240Z,9.84
2022-11-03T02:59:40.213Z,9.86
2022-11-03T03:00:40.354Z,9.75
2022-11-03T03:01:40.320Z,9.91
2022-11-03T03:02:40.163Z,9.87
2022-11-03T03:03:40.152Z,9.79
2022-11-03T03:04:40.135Z,9.79
2022-11-03T03:05:40.118Z,9.71
2022-11-03T03:06:40.098Z,9.68
2022-11-03T03:07:40.083Z,9.51
2022-11-03T03:08:40.101Z,9.35
2022-11-03T03:09:40.074Z,9.42
2022-11-03T03:10:40.035Z,9.43
2022-11-03T03:11:40.021Z,9.36
2022-11-03T03:12:40.002Z,9.31
2022-11-03T03:13:40.010Z,9.23
2022-11-03T03:14:40.034Z,9.21
2022-11-03T03:15:39.950Z,9.29
2022-11-03T03:16:39.940Z,9.23
2022-11-03T03:17:39.914Z,9.10
2022-11-03T03:18:39.903Z,9.13
2022-11-03T03:19:39.883Z,9.08
2022-11-03T03:20:39.894Z,9.02
2022-11-03T03:21:39.897Z,8.94
2022-11-03T03:22:39.836Z,8.91
2022-11-03T03:23:39.846Z,8.91
2022-11-03T03:24:39.805Z,8.89
2022-11-03T03:25:39.784Z,8.92
2022-11-03T03:26:39.800Z,8.92
2022-11-03T03:27:39.756Z,8.95
2022-11-03T03:28:39.768Z,8.91
2022-11-03T03:29:39.718Z,8.91
2022-11-03T03:30:39.702Z,8.86
2022-11-03T03:31:39.724Z,8.89
2022-11-03T03:32:39.671Z,8.86
2022-11-03T03:33:42.000Z,9.02
2022-11-03T03:34:39.718Z,9.05
2022-11-03T03:35:39.622Z,9.05
2022-11-03T03:36:39.604Z,9.21
2022-11-03T03:37:39.585Z,9.28
2022-11-03T03:38:39.803Z,9.39
2022-11-03T03:39:39.555Z,9.43
2022-11-03T03:40:39.596Z,9.50
2022-11-03T03:41:39.517Z,9.51
2022-11-03T03:42:39.508Z,9.58
2022-11-03T03:43:39.493Z,9.65
2022-11-03T03:44:39.476Z,9.72
2022-11-03T03:45:39.453Z,9.61
2022-11-03T03:46:39.447Z,9.78
2022-11-03T03:47:39.422Z,9.74
2022-11-03T03:48:39.405Z,9.65
2022-11-03T03:49:39.411Z,9.69
2022-11-03T03:50:39.373Z,9.69
2022-11-03T03:51:39.381Z,9.72
2022-11-03T03:52:39.379Z,9.72
2022-11-03T03:53:39.337Z,9.69
2022-11-03T03:54:39.304Z,9.68
2022-11-03T03:55:39.290Z,9.74
2022-11-03T03:56:39.275Z,9.74
2022-11-03T03:57:39.320Z,9.71
2022-11-03T03:58:39.240Z,9.69
2022-11-03T03:59:39.229Z,9.72
2022-11-03T04:00:39.209Z,9.71
2022-11-03T04:01:39.266Z,9.72
2022-11-03T04:02:39.215Z,9.76
2022-11-03T04:03:39.158Z,9.76
2022-11-03T04:04:39.168Z,9.72
2022-11-03T04:05:39.121Z,9.74
2022-11-03T04:06:39.105Z,9.74
2022-11-03T04:07:43.484Z,9.68
2022-11-03T04:08:39.127Z,9.71
2022-11-03T04:09:39.054Z,9.76
2022-11-03T04:10:39.039Z,9.68
2022-11-03T04:11:39.026Z,9.75
2022-11-03T04:12:39.027Z,9.71
2022-11-03T04:13:38.991Z,9.69
2022-11-03T04:14:38.978Z,9.71
2022-11-03T04:15:38.956Z,9.71
2022-11-03T04:16:38.942Z,9.71
2022-11-03T04:17:38.966Z,9.66
2022-11-03T04:18:38.908Z,9.72
2022-11-03T04:19:38.899Z,9.72
2022-11-03T04:20:38.880Z,9.78
2022-11-03T04:21:38.882Z,9.71
2022-11-03T04:22:38.842Z,9.76
2022-11-03T04:23:38.825Z,9.81
2022-11-03T04:24:38.851Z,9.68
2022-11-03T04:25:38.793Z,9.74
2022-11-03T04:26:38.778Z,9.69
2022-11-03T04:27:38.759Z,9.78
2022-11-03T04:28:38.771Z,9.68
2022-11-03T04:29:38.753Z,9.72
2022-11-03T04:30:38.709Z,9.65
2022-11-03T04:31:38.691Z,9.76
2022-11-03T04:32:38.687Z,9.69
2022-11-03T04:33:38.689Z,9.71
2022-11-03T04:34:38.648Z,9.76
2022-11-03T04:35:38.624Z,9.74
2022-11-03T04:36:38.624Z,9.71
2022-11-03T04:37:39.922Z,9.78
2022-11-03T04:38:38.604Z,9.71
2022-11-03T04:39:38.605Z,9.75
2022-11-03T04:40:38.546Z,9.74
2022-11-03T04:41:38.560Z,9.75
2022-11-03T04:42:38.511Z,9.68
2022-11-03T04:43:38.494Z,9.72
2022-11-03T04:44:38.487Z,9.69
2022-11-03T04:45:38.459Z,9.72
2022-11-03T04:46:38.473Z,9.69
2022-11-03T04:47:38.427Z,9.69
2022-11-03T04:48:38.414Z,9.78
2022-11-03T04:49:38.422Z,9.72
2022-11-03T04:50:41.707Z,9.86
2022-11-03T04:51:38.362Z,9.76
2022-11-03T04:52:38.352Z,9.84
2022-11-03T04:53:38.354Z,9.90
2022-11-03T04:54:38.312Z,9.84
2022-11-03T04:55:38.296Z,9.86
2022-11-03T04:56:38.304Z,9.78
2022-11-03T04:57:38.263Z,9.78
2022-11-03T04:58:38.276Z,9.89
2022-11-03T04:59:38.262Z,9.89
2022-11-03T05:00:38.225Z,9.87
2022-11-03T05:01:38.336Z,9.97
2022-11-03T05:02:38.178Z,9.94
2022-11-03T05:03:38.167Z,9.91
2022-11-03T05:04:38.218Z,9.96
2022-11-03T05:05:38.133Z,9.89
2022-11-03T05:06:38.117Z,9.94
2022-11-03T05:07:38.098Z,9.96
2022-11-03T05:08:38.084Z,9.94
2022-11-03T05:09:42.677Z,9.97
2022-11-03T05:10:38.054Z,9.94
2022-11-03T05:11:38.035Z,9.94
2022-11-03T05:12:38.020Z,9.90
2022-11-03T05:13:38.019Z,9.94
2022-11-03T05:14:37.996Z,10.01
2022-11-03T05:15:37.994Z,9.91
2022-11-03T05:16:37.949Z,9.91
2022-11-03T05:17:37.931Z,9.96
2022-11-03T05:18:37.919Z,9.94
2022-11-03T05:19:37.902Z,9.97
2022-11-03T05:20:37.940Z,9.97
2022-11-03T05:21:37.868Z,9.93
2022-11-03T05:22:37.850Z,9.83
2022-11-03T05:23:37.837Z,9.81
2022-11-03T05:24:37.830Z,9.90
2022-11-03T05:25:37.806Z,9.87
2022-11-03T05:26:37.792Z,9.81
2022-11-03T05:27:37.789Z,9.87
2022-11-03T05:28:37.755Z,9.89
2022-11-03T05:29:37.735Z,9.91
2022-11-03T05:30:45.711Z,9.84
2022-11-03T05:31:37.704Z,9.81
2022-11-03T05:32:37.684Z,9.81
2022-11-03T05:33:37.663Z,9.87
2022-11-03T05:34:37.670Z,9.79
2022-11-03T05:35:37.633Z,9.87
2022-11-03T05:36:37.620Z,9.78
2022-11-03T05:37:37.604Z,9.86
2022-11-03T05:38:37.583Z,9.79
2022-11-03T05:39:37.575Z,9.74
2022-11-03T05:40:37.558Z,9.89
2022-11-03T05:41:37.563Z,9.86
2022-11-03T05:42:37.520Z,9.81
2022-11-03T05:43:37.503Z,9.91
2022-11-03T05:44:37.485Z,9.91
2022-11-03T05:45:37.501Z,9.86
2022-11-03T05:46:37.454Z,9.93
2022-11-03T05:47:37.496Z,9.86
2022-11-03T05:48:37.417Z,9.86
2022-11-03T05:49:37.402Z,9.83
2022-11-03T05:50:37.383Z,9.81
2022-11-03T05:51:37.369Z,9.79
2022-11-03T05:52:37.350Z,9.79
2022-11-03T05:53:37.384Z,9.84
2022-11-03T05:54:37.320Z,9.81
2022-11-03T05:55:37.305Z,9.79
2022-11-03T05:56:37.286Z,9.90
2022-11-03T05:57:37.272Z,9.78
2022-11-03T05:58:37.250Z,9.79
2022-11-03T05:59:37.239Z,9.84
2022-11-03T06:00:37.219Z,9.79
2022-11-03T06:01:37.319Z,9.79
2022-11-03T06:02:37.215Z,9.78
2022-11-03T06:03:37.196Z,9.69
2022-11-03T06:04:37.163Z,9.76
2022-11-03T06:05:37.163Z,9.83
2022-11-03T06:06:37.123Z,9.79
2022-11-03T06:07:37.107Z,9.79
2022-11-03T06:08:39.077Z,9.86
2022-11-03T06:09:37.086Z,9.76
2022-11-03T06:10:37.055Z,9.86
2022-11-03T06:11:37.040Z,9.90
2022-11-03T06:12:37.024Z,9.83
2022-11-03T06:13:37.016Z,9.79
2022-11-03T06:14:36.991Z,9.87
2022-11-03T06:15:37.046Z,9.89
2022-11-03T06:16:37.006Z,9.83
2022-11-03T06:17:36.956Z,9.86
2022-11-03T06:18:36.924Z,9.86
2022-11-03T06:19:36.907Z,9.90
2022-11-03T06:20:36.893Z,9.78
2022-11-03T06:21:40.477Z,9.89
2022-11-03T06:22:36.858Z,9.81
2022-11-03T06:23:36.842Z,9.86
2022-11-03T06:24:36.826Z,9.81
2022-11-03T06:25:36.808Z,9.86
2022-11-03T06:26:36.791Z,9.81
2022-11-03T06:27:36.778Z,9.86
2022-11-03T06:28:36.770Z,9.84
2022-11-03T06:29:36.741Z,9.91
2022-11-03T06:30:36.784Z,9.87
2022-11-03T06:31:36.737Z,9.83
2022-11-03T06:32:36.695Z,9.86
2022-11-03T06:33:36.726Z,9.86
2022-11-03T06:34:36.663Z,9.84
2022-11-03T06:35:36.642Z,9.84
2022-11-03T06:36:36.636Z,9.89
2022-11-03T06:37:36.610Z,9.81
2022-11-03T06:38:36.591Z,9.90
2022-11-03T06:39:36.611Z,9.81
2022-11-03T06:40:36.557Z,9.86
2022-11-03T06:41:36.558Z,9.94
2022-11-03T06:42:36.597Z,9.86
2022-11-03T06:43:36.514Z,9.90
2022-11-03T06:44:36.562Z,9.84
2022-11-03T06:45:36.479Z,9.93
2022-11-03T06:46:36.464Z,9.86
2022-11-03T06:47:36.457Z,9.94
2022-11-03T06:48:36.428Z,9.97
2022-11-03T06:49:36.412Z,9.99
2022-11-03T06:50:38.846Z,9.97
2022-11-03T06:51:36.382Z,10.01
2022-11-03T06:52:36.469Z,9.97
2022-11-03T06:53:36.351Z,9.96
2022-11-03T06:54:36.345Z,10.02
2022-11-03T06:55:36.320Z,10.05
2022-11-03T06:56:36.308Z,10.02
2022-11-03T06:57:36.282Z,10.07
2022-11-03T06:58:36.274Z,9.96
2022-11-03T06:59:36.251Z,10.09
2022-11-03T07:00:39.613Z,10.02
2022-11-03T07:01:36.344Z,10.12
2022-11-03T07:02:36.285Z,10.08
2022-11-03T07:03:36.188Z,10.08
2022-11-03T07:04:36.163Z,10.08
2022-11-03T07:05:36.181Z,10.11
2022-11-03T07:06:36.140Z,10.05
2022-11-03T07:07:36.116Z,10.14
2022-11-03T07:08:36.125Z,10.14
2022-11-03T07:09:36.100Z,10.12
2022-11-03T07:10:36.099Z,10.14
2022-11-03T07:11:36.049Z,10.18
2022-11-03T07:12:36.035Z,10.14
2022-11-03T07:13:36.022Z,10.22
2022-11-03T07:14:36.007Z,10.15
2022-11-03T07:15:35.986Z,10.22
2022-11-03T07:16:35.968Z,10.23
2022-11-03T07:17:35.958Z,10.20
2022-11-03T07:18:35.938Z,10.22
2022-11-03T07:19:35.926Z,10.20
2022-11-03T07:20:35.912Z,10.23
2022-11-03T07:21:35.923Z,10.18
2022-11-03T07:22:35.871Z,10.29
2022-11-03T07:23:35.858Z,10.22
2022-11-03T07:24:35.839Z,10.18
2022-11-03T07:25:35.828Z,10.26
2022-11-03T07:26:35.855Z,10.30
2022-11-03T07:27:35.791Z,10.29
2022-11-03T07:28:35.775Z,10.27
2022-11-03T07:29:35.762Z,10.30
2022-11-03T07:30:35.753Z,10.32
2022-11-03T07:31:35.752Z,10.38
2022-11-03T07:32:35.721Z,10.40
2022-11-03T07:33:35.698Z,10.41
2022-11-03T07:34:35.682Z,10.34
2022-11-03T07:36:00.491Z,10.47
2022-11-03T07:36:35.649Z,10.56
2022-11-03T07:37:35.693Z,10.52
2022-11-03T07:38:35.613Z,10.56
2022-11-03T07:39:35.612Z,10.40
2022-11-03T07:40:35.580Z,10.55
2022-11-03T07:41:35.621Z,10.45
2022-11-03T07:42:35.553Z,10.42
2022-11-03T07:43:35.593Z,10.60
2022-11-03T07:44:35.520Z,10.44
2022-11-03T07:45:35.503Z,10.52
2022-11-03T07:46:35.485Z,10.55
2022-11-03T07:47:35.473Z,10.52
2022-11-03T07:48:35.460Z,10.61
2022-11-03T07:49:35.447Z,10.61
2022-11-03T07:50:35.420Z,10.67
2022-11-03T07:51:35.406Z,10.61
2022-11-03T07:52:35.387Z,10.60
2022-11-03T07:53:35.374Z,10.63
2022-11-03T07:54:35.367Z,10.64
2022-11-03T07:55:35.367Z,10.73
2022-11-03T07:56:35.402Z,10.78
2022-11-03T07:57:35.323Z,10.70
2022-11-03T07:58:35.293Z,10.71
2022-11-03T07:59:35.284Z,10.79
2022-11-03T08:00:35.263Z,10.86
2022-11-03T08:01:35.432Z,10.85
2022-11-03T08:02:35.254Z,10.84
2022-11-03T08:03:35.221Z,10.88
2022-11-03T08:04:35.217Z,10.82
2022-11-03T08:05:35.189Z,10.89
2022-11-03T08:06:35.172Z,10.99
2022-11-03T08:07:35.157Z,10.92
2022-11-03T08:08:35.152Z,10.88
2022-11-03T08:09:35.121Z,11.02
2022-11-03T08:10:35.126Z,11.03
2022-11-03T08:11:35.093Z,11.07
2022-11-03T08:12:35.074Z,11.06
2022-11-03T08:13:35.060Z,11.14
2022-11-03T08:14:35.042Z,11.03
2022-11-03T08:15:35.080Z,11.15
2022-11-03T08:16:35.007Z,11.19
2022-11-03T08:17:34.997Z,11.10
2022-11-03T08:18:34.993Z,11.17
2022-11-03T08:19:35.047Z,11.24
2022-11-03T08:20:35.036Z,11.21
2022-11-03T08:21:34.977Z,11.24
2022-11-03T08:22:34.912Z,11.24
2022-11-03T08:23:34.899Z,11.25
2022-11-03T08:24:34.885Z,11.28
2022-11-03T08:25:34.896Z,11.33
2022-11-03T08:26:34.871Z,11.32
2022-11-03T08:27:34.839Z,11.33
2022-11-03T08:28:35.007Z,11.27
2022-11-03T08:29:34.803Z,11.35
2022-11-03T08:30:34.798Z,11.39
2022-11-03T08:31:34.775Z,11.32
2022-11-03T08:32:34.757Z,11.43
2022-11-03T08:33:34.745Z,11.35
2022-11-03T08:34:34.728Z,11.39
2022-11-03T08:35:34.713Z,11.44
2022-11-03T08:36:34.696Z,11.42
2022-11-03T08:37:34.690Z,11.43
2022-11-03T08:38:34.669Z,11.47
2022-11-03T08:39:34.724Z,11.46
2022-11-03T08:40:34.636Z,11.54
2022-11-03T08:41:34.620Z,11.55
2022-11-03T08:42:34.599Z,11.58
2022-11-03T08:43:34.605Z,11.65
2022-11-03T08:44:34.577Z,11.69
2022-11-03T08:45:34.590Z,11.64
2022-11-03T08:46:34.550Z,11.73
2022-11-03T08:47:34.530Z,11.79
2022-11-03T08:48:34.515Z,11.70
2022-11-03T08:49:34.494Z,11.78
2022-11-03T08:50:34.504Z,11.76
2022-11-03T08:51:34.471Z,11.76
2022-11-03T08:52:34.471Z,11.86
2022-11-03T08:53:34.440Z,11.86
2022-11-03T08:54:34.421Z,11.85
2022-11-03T08:55:34.408Z,11.94
2022-11-03T08:56:34.392Z,11.88
2022-11-03T08:57:34.393Z,11.95
2022-11-03T08:58:34.359Z,11.95
2022-11-03T08:59:34.354Z,11.90
2022-11-03T09:00:39.716Z,12.02
2022-11-03T09:01:34.377Z,11.95
2022-11-03T09:02:34.322Z,11.94
2022-11-03T09:03:34.339Z,11.94
2022-11-03T09:04:34.271Z,11.95
2022-11-03T09:05:34.252Z,11.98
2022-11-03T09:06:34.292Z,12.01
2022-11-03T09:10:36.923Z,12.05
2022-11-03T09:11:34.165Z,12.04
2022-11-03T09:12:34.172Z,12.01
2022-11-03T09:13:34.137Z,12.04
2022-11-03T09:14:34.121Z,11.98
2022-11-03T09:15:34.156Z,12.12
2022-11-03T09:16:34.088Z,12.04
2022-11-03T09:17:34.071Z,12.02
2022-11-03T09:18:34.061Z,12.05
2022-11-03T09:19:34.040Z,12.05
2022-11-03T09:20:34.032Z,12.04
2022-11-03T09:21:34.037Z,12.09
2022-11-03T09:22:34.002Z,12.09
2022-11-03T09:23:33.994Z,12.13
2022-11-03T09:24:33.971Z,12.13
2022-11-03T09:25:33.954Z,12.04
2022-11-03T09:26:34.015Z,12.05
2022-11-03T09:27:33.925Z,12.07
2022-11-03T09:28:33.917Z,12.16
2022-11-03T09:29:58.641Z,12.21
2022-11-03T09:30:33.881Z,12.16
2022-11-03T09:31:33.883Z,12.16
2022-11-03T09:32:33.875Z,12.17
2022-11-03T09:33:33.841Z,12.27
2022-11-03T09:34:33.821Z,12.27
2022-11-03T09:35:33.811Z,12.27
2022-11-03T09:36:33.820Z,12.38
2022-11-03T09:37:33.798Z,12.32
2022-11-03T09:38:33.784Z,12.39
2022-11-03T09:39:33.742Z,12.45
2022-11-03T09:40:33.783Z,12.39
2022-11-03T09:41:55.746Z,12.50
2022-11-03T09:42:33.897Z,12.49
2022-11-03T09:43:33.681Z,12.56
2022-11-03T09:44:33.689Z,12.60
2022-11-03T09:45:33.682Z,12.62
2022-11-03T09:46:33.646Z,12.65
2022-11-03T09:47:33.647Z,12.68
2022-11-03T09:48:33.615Z,12.72
2022-11-03T09:49:33.598Z,12.74
2022-11-03T09:50:33.614Z,12.75
2022-11-03T09:51:33.565Z,12.77
2022-11-03T09:52:33.552Z,12.75
2022-11-03T09:53:33.584Z,12.82
2022-11-03T09:54:33.526Z,12.82
2022-11-03T09:55:33.516Z,12.85
2022-11-03T09:56:33.498Z,12.85
2022-11-03T09:57:33.486Z,12.79
2022-11-03T09:58:33.472Z,12.86
2022-11-03T09:59:33.644Z,12.87
2022-11-03T10:00:33.440Z,12.82
2022-11-03T10:01:33.590Z,12.87
2022-11-03T10:02:33.458Z,12.79
2022-11-03T10:03:33.393Z,12.83
2022-11-03T10:04:33.383Z,12.93
2022-11-03T10:05:33.391Z,12.92
2022-11-03T10:06:33.355Z,12.93
2022-11-03T10:07:33.336Z,12.97
2022-11-03T10:08:33.324Z,12.95
2022-11-03T10:09:33.311Z,12.96
2022-11-03T10:10:33.345Z,12.96
2022-11-03T10:11:33.279Z,12.96
2022-11-03T10:12:33.267Z,12.97
2022-11-03T10:13:33.255Z,12.97
2022-11-03T10:14:33.268Z,13.00
2022-11-03T10:15:33.222Z,12.96
2022-11-03T10:16:33.254Z,12.96
2022-11-03T10:17:33.195Z,13.10
2022-11-03T10:18:33.180Z,13.00
2022-11-03T10:19:33.172Z,13.03
2022-11-03T10:20:33.155Z,13.10
2022-11-03T10:21:33.161Z,12.96
2022-11-03T10:22:37.008Z,13.05
2022-11-03T10:23:33.110Z,13.08
2022-11-03T10:24:33.095Z,13.05
2022-11-03T10:25:33.109Z,13.07
2022-11-03T10:26:33.099Z,13.07
2022-11-03T10:27:33.084Z,13.07
2022-11-03T10:28:33.059Z,13.10
2022-11-03T10:29:34.666Z,13.10
2022-11-03T10:30:45.395Z,13.08
2022-11-03T10:31:33.005Z,13.03
2022-11-03T10:32:33.005Z,13.04
2022-11-03T10:33:32.969Z,12.96
2022-11-03T10:34:32.955Z,13.10
2022-11-03T10:35:32.957Z,13.11
2022-11-03T10:36:32.933Z,13.11
2022-11-03T10:37:32.950Z,13.25
2022-11-03T10:38:32.896Z,13.22
2022-11-03T10:39:32.891Z,13.30
2022-11-03T10:40:47.311Z,13.26
2022-11-03T10:41:32.849Z,13.32
2022-11-03T10:42:35.823Z,13.25
2022-11-03T10:43:32.873Z,13.33
2022-11-03T10:44:32.815Z,13.28
2022-11-03T10:45:32.800Z,13.33
2022-11-03T10:47:32.776Z,13.39
2022-11-03T10:48:33.003Z,13.41
2022-11-03T10:49:33.355Z,13.44
2022-11-03T10:50:32.727Z,13.41
2022-11-03T10:51:32.715Z,13.52
2022-11-03T10:52:32.702Z,13.46
2022-11-03T10:53:32.728Z,13.48
2022-11-03T10:54:32.695Z,13.49
2022-11-03T10:55:32.787Z,13.41
2022-11-03T10:56:32.647Z,13.38
2022-11-03T10:57:32.630Z,13.45
2022-11-03T10:58:32.617Z,13.39
2022-11-03T10:59:32.600Z,13.48
2022-11-03T11:00:32.601Z,13.39
2022-11-03T11:01:32.718Z,13.32
2022-11-03T11:02:32.634Z,13.33
2022-11-03T11:03:32.567Z,13.29
2022-11-03T11:04:32.633Z,13.28
2022-11-03T11:05:32.512Z,13.32
2022-11-03T11:06:32.560Z,13.33
2022-11-03T11:07:32.488Z,13.36
2022-11-03T11:08:32.508Z,13.36
2022-11-03T11:09:32.465Z,13.36
2022-11-03T11:10:32.456Z,13.30
2022-11-03T11:11:32.432Z,13.39
2022-11-03T11:12:32.422Z,13.25
2022-11-03T11:13:32.399Z,13.36
2022-11-03T11:14:32.390Z,13.38
2022-11-03T11:15:32.389Z,13.33
2022-11-03T11:16:32.365Z,13.36
2022-11-03T11:17:32.395Z,13.33
2022-11-03T11:18:32.333Z,13.38
2022-11-03T11:19:32.315Z,13.41
2022-11-03T11:20:32.322Z,13.51
2022-11-03T11:21:35.627Z,13.38
2022-11-03T11:22:32.272Z,13.39
2022-11-03T11:23:32.257Z,13.48
2022-11-03T11:24:32.250Z,13.39
2022-11-03T11:25:32.232Z,13.48
2022-11-03T11:26:32.214Z,13.57
2022-11-03T11:27:32.213Z,13.55
2022-11-03T11:28:32.224Z,13.60
2022-11-03T11:29:32.238Z,13.52
2022-11-03T11:30:32.161Z,13.55
2022-11-03T11:31:32.152Z,13.49
2022-11-03T11:32:32.135Z,13.59
2022-11-03T11:33:32.119Z,13.52
2022-11-03T11:34:32.104Z,13.54
2022-11-03T11:35:32.111Z,13.54
2022-11-03T11:36:32.112Z,13.60
2022-11-03T11:37:32.141Z,13.55
2022-11-03T11:38:32.085Z,13.55
2022-11-03T11:39:32.066Z,13.45
2022-11-03T11:40:32.046Z,13.59
2022-11-03T11:41:32.017Z,13.57
2022-11-03T11:42:33.766Z,13.42
2022-11-03T11:43:31.982Z,13.39
2022-11-03T11:44:31.960Z,13.42
2022-11-03T11:45:31.971Z,13.38
2022-11-03T11:46:31.941Z,13.38
2022-11-03T11:47:31.939Z,13.46
2022-11-03T11:48:31.902Z,13.36
2022-11-03T11:49:31.888Z,13.39
2022-11-03T11:50:32.007Z,13.32
2022-11-03T11:51:31.862Z,13.39
2022-11-03T11:52:31.847Z,13.29
2022-11-03T11:53:32.111Z,13.22
2022-11-03T11:54:31.819Z,13.29
2022-11-03T11:55:39.367Z,13.28
2022-11-03T11:56:31.858Z,13.23
2022-11-03T11:57:31.774Z,13.29
2022-11-03T11:58:31.768Z,13.23
2022-11-03T11:59:31.746Z,13.15
2022-11-03T12:00:31.733Z,13.22
2022-11-03T12:01:31.761Z,13.11
2022-11-03T12:02:31.724Z,13.17
2022-11-03T12:03:31.778Z,13.05
2022-11-03T12:04:31.997Z,13.17
2022-11-03T12:05:31.662Z,13.11
2022-11-03T12:06:31.703Z,13.10
2022-11-03T12:07:31.685Z,13.17
2022-11-03T12:08:31.629Z,13.19
2022-11-03T12:09:31.605Z,13.07
2022-11-03T12:10:31.590Z,13.14
2022-11-03T12:11:31.651Z,13.14
2022-11-03T12:12:31.571Z,13.19
2022-11-03T12:13:31.567Z,13.25
2022-11-03T12:14:31.545Z,13.22
2022-11-03T12:15:31.513Z,13.17
2022-11-03T12:16:31.504Z,13.26
2022-11-03T12:17:31.506Z,13.22
2022-11-03T12:18:35.183Z,13.28
2022-11-03T12:19:31.463Z,13.25
2022-11-03T12:20:31.450Z,13.28
2022-11-03T12:21:31.423Z,13.26
2022-11-03T12:22:31.456Z,13.38
2022-11-03T12:23:31.441Z,13.36
2022-11-03T12:24:31.441Z,13.28
2022-11-03T12:25:31.379Z,13.23
2022-11-03T12:26:31.372Z,13.14
2022-11-03T12:27:31.385Z,13.26
2022-11-03T12:28:31.324Z,13.29
2022-11-03T12:29:31.310Z,13.30
2022-11-03T12:30:35.484Z,13.30
2022-11-03T12:31:33.048Z,13.28
2022-11-03T12:32:34.634Z,13.32
2022-11-03T12:33:31.262Z,13.32
2022-11-03T12:34:31.240Z,13.28
2022-11-03T12:35:31.280Z,13.32
2022-11-03T12:36:31.223Z,13.29
2022-11-03T12:37:31.195Z,13.28
2022-11-03T12:38:31.181Z,13.39
2022-11-03T12:39:31.164Z,13.38
2022-11-03T12:40:31.151Z,13.41
2022-11-03T12:41:31.161Z,13.48
2022-11-03T12:42:31.125Z,13.32
2022-11-03T12:43:31.113Z,13.33
2022-11-03T12:44:31.112Z,13.51
2022-11-03T12:45:31.095Z,13.36
2022-11-03T12:46:31.096Z,13.48
2022-11-03T12:47:31.048Z,13.39
2022-11-03T12:48:31.043Z,13.39
2022-11-03T12:49:31.027Z,13.51
2022-11-03T12:50:31.019Z,13.41
2022-11-03T12:51:30.995Z,13.51
2022-11-03T12:52:30.980Z,13.44
2022-11-03T12:53:30.988Z,13.51
2022-11-03T12:54:30.967Z,13.51
2022-11-03T12:55:30.933Z,13.48
2022-11-03T12:56:30.948Z,13.39
2022-11-03T12:57:30.931Z,13.45
2022-11-03T12:58:30.889Z,13.39
2022-11-03T12:59:30.875Z,13.39
2022-11-03T13:00:30.861Z,13.42
2022-11-03T13:01:30.997Z,13.48
2022-11-03T13:02:30.954Z,13.49
2022-11-03T13:03:30.815Z,13.42
2022-11-03T13:04:30.807Z,13.44
2022-11-03T13:05:30.789Z,13.39
2022-11-03T13:06:30.780Z,13.30
2022-11-03T13:07:34.761Z,13.59
2022-11-03T13:08:30.757Z,13.46
2022-11-03T13:09:30.733Z,13.54